EDV5425 KBWI-KJFK
Flight info
| Callsign | EDV5425 |
|---|---|
| Flight time | N/A |
| Altitude | 17000 |
| Route | DUKPN1 DONIL T315 PANZE V44 CAMRN |
| Aircraft | CRJ9/M-SDFGIRWY/S |
Departure
| Time | 2026-05-06 02:34 |
|---|---|
| Airport | Baltimore/Washington International Thurgood Marshall Airport (KBWI) |
Arrival
| Time | N/A |
|---|---|
| Airport | John F. Kennedy International Airport (KJFK) |
| Time | Latitude | Longitude | Altitude | Speed | Heading |
|---|---|---|---|---|---|
| 2026-05-06 01:50 | 39.17844 | -76.66494 | 156 ft | 0 kts | 40° |
| 2026-05-06 02:14 | 39.17833 | -76.66508 | 156 ft | 2 kts | 52° |
| 2026-05-06 02:14 | 39.17825 | -76.66526 | 156 ft | 2 kts | 73° |
| 2026-05-06 02:15 | 39.17825 | -76.66547 | 156 ft | 2 kts | 109° |
| 2026-05-06 02:15 | 39.17833 | -76.66565 | 157 ft | 2 kts | 137° |
| 2026-05-06 02:15 | 39.17840 | -76.66571 | 157 ft | 0 kts | 146° |
| 2026-05-06 02:15 | 39.17840 | -76.66572 | 157 ft | 0 kts | 147° |
| 2026-05-06 02:23 | 39.17835 | -76.66567 | 157 ft | 2 kts | 150° |
| 2026-05-06 02:23 | 39.17818 | -76.66557 | 156 ft | 3 kts | 154° |
| 2026-05-06 02:24 | 39.17791 | -76.66540 | 156 ft | 5 kts | 150° |
| 2026-05-06 02:24 | 39.17762 | -76.66506 | 155 ft | 6 kts | 130° |
| 2026-05-06 02:24 | 39.17738 | -76.66458 | 155 ft | 7 kts | 118° |
| 2026-05-06 02:24 | 39.17732 | -76.66395 | 154 ft | 7 kts | 53° |
| 2026-05-06 02:25 | 39.17774 | -76.66336 | 154 ft | 12 kts | 74° |
| 2026-05-06 02:25 | 39.17747 | -76.66218 | 153 ft | 14 kts | 117° |
| 2026-05-06 02:25 | 39.17699 | -76.66098 | 151 ft | 16 kts | 117° |
| 2026-05-06 02:25 | 39.17646 | -76.65968 | 150 ft | 16 kts | 117° |
| 2026-05-06 02:26 | 39.17605 | -76.65858 | 150 ft | 14 kts | 115° |
| 2026-05-06 02:26 | 39.17563 | -76.65749 | 151 ft | 13 kts | 116° |
| 2026-05-06 02:26 | 39.17516 | -76.65669 | 153 ft | 10 kts | 156° |
| 2026-05-06 02:26 | 39.17459 | -76.65661 | 154 ft | 7 kts | 167° |
| 2026-05-06 02:27 | 39.17431 | -76.65625 | 154 ft | 5 kts | 112° |
| 2026-05-06 02:27 | 39.17417 | -76.65575 | 155 ft | 6 kts | 109° |
| 2026-05-06 02:27 | 39.17394 | -76.65531 | 155 ft | 5 kts | 152° |
| 2026-05-06 02:27 | 39.17386 | -76.65528 | 155 ft | 0 kts | 166° |
| 2026-05-06 02:31 | 39.17382 | -76.65527 | 155 ft | 1 kts | 166° |
| 2026-05-06 02:32 | 39.17311 | -76.65534 | 155 ft | 12 kts | 219° |
| 2026-05-06 02:32 | 39.17285 | -76.65603 | 153 ft | 1 kts | 267° |
| 2026-05-06 02:32 | 39.17297 | -76.65901 | 152 ft | 72 kts | 273° |
| 2026-05-06 02:32 | 39.17360 | -76.66859 | 160 ft | 139 kts | 274° |
| 2026-05-06 02:33 | 39.17447 | -76.68312 | 362 ft | 178 kts | 271° |
| 2026-05-06 02:33 | 39.17510 | -76.69434 | 647 ft | 195 kts | 267° |
| 2026-05-06 02:34 | 39.16620 | -76.73483 | 3703 ft | 147 kts | 171° |
| 2026-05-06 02:34 | 39.15808 | -76.72558 | 4268 ft | 160 kts | 143° |
| 2026-05-06 02:34 | 39.15056 | -76.71587 | 4830 ft | 147 kts | 156° |
| 2026-05-06 02:34 | 39.14230 | -76.70886 | 5288 ft | 139 kts | 166° |
| 2026-05-06 02:35 | 39.13358 | -76.70352 | 5634 ft | 143 kts | 171° |
| 2026-05-06 02:35 | 39.12362 | -76.69879 | 5828 ft | 162 kts | 172° |
| 2026-05-06 02:35 | 39.11249 | -76.69427 | 6227 ft | 176 kts | 174° |
| 2026-05-06 02:35 | 39.10022 | -76.69028 | 6334 ft | 187 kts | 177° |
| 2026-05-06 02:36 | 39.08728 | -76.68650 | 6614 ft | 193 kts | 166° |
| 2026-05-06 02:36 | 39.07711 | -76.67388 | 6814 ft | 223 kts | 120° |
| 2026-05-06 02:36 | 39.07570 | -76.65347 | 7062 ft | 241 kts | 81° |
| 2026-05-06 02:36 | 39.07968 | -76.63264 | 7424 ft | 239 kts | 79° |
| 2026-05-06 02:37 | 39.08319 | -76.61165 | 7614 ft | 244 kts | 84° |
| 2026-05-06 02:37 | 39.08527 | -76.58944 | 7706 ft | 255 kts | 90° |
| 2026-05-06 02:37 | 39.08611 | -76.56677 | 8038 ft | 254 kts | 92° |
| 2026-05-06 02:37 | 39.08656 | -76.54404 | 8382 ft | 254 kts | 92° |
| 2026-05-06 02:38 | 39.08713 | -76.52135 | 8712 ft | 255 kts | 91° |
| 2026-05-06 02:38 | 39.08783 | -76.49851 | 9041 ft | 256 kts | 91° |
| 2026-05-06 02:38 | 39.08859 | -76.47555 | 9355 ft | 257 kts | 90° |
| 2026-05-06 02:38 | 39.08951 | -76.45252 | 9672 ft | 259 kts | 87° |
| 2026-05-06 02:39 | 39.08988 | -76.42948 | 9911 ft | 257 kts | 108° |
| 2026-05-06 02:39 | 39.08275 | -76.40904 | 10170 ft | 249 kts | 126° |
| 2026-05-06 02:39 | 39.07415 | -76.38959 | 10450 ft | 251 kts | 123° |
| 2026-05-06 02:39 | 39.06661 | -76.36920 | 10716 ft | 254 kts | 117° |
| 2026-05-06 02:40 | 39.06180 | -76.34714 | 10983 ft | 260 kts | 101° |
| 2026-05-06 02:40 | 39.05985 | -76.32388 | 11226 ft | 264 kts | 90° |
| 2026-05-06 02:40 | 39.06333 | -76.30055 | 11476 ft | 267 kts | 76° |
| 2026-05-06 02:40 | 39.06474 | -76.27711 | 11656 ft | 263 kts | 108° |
| 2026-05-06 02:41 | 39.05629 | -76.25734 | 11859 ft | 248 kts | 146° |
| 2026-05-06 02:41 | 39.04174 | -76.24716 | 12071 ft | 233 kts | 179° |
| 2026-05-06 02:41 | 39.02664 | -76.25049 | 12273 ft | 219 kts | 217° |
| 2026-05-06 02:41 | 39.01409 | -76.26144 | 12480 ft | 222 kts | 204° |
| 2026-05-06 02:42 | 38.99870 | -76.26503 | 12724 ft | 227 kts | 191° |
| 2026-05-06 02:42 | 38.98797 | -76.26629 | 12864 ft | 228 kts | 190° |
| 2026-05-06 02:42 | 38.97182 | -76.26797 | 12936 ft | 241 kts | 189° |
| 2026-05-06 02:42 | 38.95473 | -76.26971 | 12930 ft | 256 kts | 189° |
| 2026-05-06 02:43 | 38.93637 | -76.26898 | 12946 ft | 278 kts | 167° |
| 2026-05-06 02:43 | 38.91944 | -76.25522 | 13001 ft | 305 kts | 135° |
| 2026-05-06 02:43 | 38.90952 | -76.23038 | 13135 ft | 325 kts | 105° |
| 2026-05-06 02:43 | 38.90976 | -76.20125 | 13462 ft | 334 kts | 76° |
| 2026-05-06 02:44 | 38.92030 | -76.17468 | 13782 ft | 338 kts | 48° |
| 2026-05-06 02:44 | 38.93884 | -76.15670 | 14042 ft | 336 kts | 19° |
| 2026-05-06 02:44 | 38.96135 | -76.15113 | 14312 ft | 327 kts | 351° |
| 2026-05-06 02:44 | 38.98298 | -76.15741 | 14631 ft | 320 kts | 335° |
| 2026-05-06 02:45 | 39.00133 | -76.16587 | 14895 ft | 320 kts | 333° |
| 2026-05-06 02:45 | 39.01826 | -76.17459 | 15135 ft | 322 kts | 333° |
| 2026-05-06 02:45 | 39.03991 | -76.18392 | 15412 ft | 326 kts | 338° |
| 2026-05-06 02:45 | 39.06180 | -76.19169 | 15691 ft | 329 kts | 340° |
| 2026-05-06 02:46 | 39.08379 | -76.19867 | 15953 ft | 329 kts | 336° |
| 2026-05-06 02:46 | 39.10343 | -76.21233 | 16227 ft | 317 kts | 315° |